sensor_id;sensor_type;location;lat;lon;timestamp;pressure;altitude;pressure_sealevel;temperature;humidity
5966;BME280;3009;43.224;27.976;2022-10-28T00:01:05;101794.16;;;11.93;100.00
5966;BME280;3009;43.224;27.976;2022-10-28T00:03:36;101787.44;;;11.91;100.00
5966;BME280;3009;43.224;27.976;2022-10-28T00:06:07;101788.50;;;11.89;100.00
5966;BME280;3009;43.224;27.976;2022-10-28T00:08:36;101781.22;;;11.95;100.00
5966;BME280;3009;43.224;27.976;2022-10-28T00:11:05;101788.50;;;11.95;100.00
5966;BME280;3009;43.224;27.976;2022-10-28T00:13:35;101783.63;;;11.97;100.00
5966;BME280;3009;43.224;27.976;2022-10-28T00:16:05;101779.94;;;11.87;100.00
5966;BME280;3009;43.224;27.976;2022-10-28T00:18:34;101784.03;;;11.80;100.00
5966;BME280;3009;43.224;27.976;2022-10-28T00:21:04;101776.25;;;11.78;100.00
5966;BME280;3009;43.224;27.976;2022-10-28T00:23:32;101777.88;;;11.74;100.00
5966;BME280;3009;43.224;27.976;2022-10-28T00:26:05;101777.69;;;11.65;100.00
5966;BME280;3009;43.224;27.976;2022-10-28T00:28:39;101775.75;;;11.71;100.00
5966;BME280;3009;43.224;27.976;2022-10-28T00:31:08;101774.59;;;11.82;100.00
5966;BME280;3009;43.224;27.976;2022-10-28T00:33:37;101770.34;;;11.76;100.00
5966;BME280;3009;43.224;27.976;2022-10-28T00:36:11;101778.69;;;11.75;100.00
5966;BME280;3009;43.224;27.976;2022-10-28T00:38:40;101771.22;;;11.72;100.00
5966;BME280;3009;43.224;27.976;2022-10-28T00:41:10;101768.81;;;11.70;100.00
5966;BME280;3009;43.224;27.976;2022-10-28T00:43:42;101770.63;;;11.75;100.00
5966;BME280;3009;43.224;27.976;2022-10-28T00:46:16;101768.47;;;11.77;100.00
5966;BME280;3009;43.224;27.976;2022-10-28T00:48:47;101759.06;;;11.74;100.00
5966;BME280;3009;43.224;27.976;2022-10-28T00:51:18;101767.97;;;11.75;100.00
5966;BME280;3009;43.224;27.976;2022-10-28T00:53:48;101768.47;;;11.77;100.00
5966;BME280;3009;43.224;27.976;2022-10-28T00:56:20;101761.19;;;11.77;100.00
5966;BME280;3009;43.224;27.976;2022-10-28T00:58:54;101757.91;;;11.85;99.82
5966;BME280;3009;43.224;27.976;2022-10-28T01:01:23;101767.84;;;11.85;98.94
5966;BME280;3009;43.224;27.976;2022-10-28T01:03:53;101762.53;;;11.80;98.04
5966;BME280;3009;43.224;27.976;2022-10-28T01:06:24;101761.81;;;11.69;97.82
5966;BME280;3009;43.224;27.976;2022-10-28T01:08:53;101758.06;;;11.65;97.40
5966;BME280;3009;43.224;27.976;2022-10-28T01:11:40;101748.94;;;11.66;96.16
5966;BME280;3009;43.224;27.976;2022-10-28T01:14:35;101752.69;;;11.65;93.37
5966;BME280;3009;43.224;27.976;2022-10-28T01:17:28;101758.69;;;11.57;93.09
5966;BME280;3009;43.224;27.976;2022-10-28T01:20:36;101756.59;;;11.48;93.25
5966;BME280;3009;43.224;27.976;2022-10-28T01:23:16;101758.78;;;11.41;93.40
5966;BME280;3009;43.224;27.976;2022-10-28T01:29:18;101758.50;;;11.43;89.61
5966;BME280;3009;43.224;27.976;2022-10-28T01:31:52;101762.56;;;11.40;89.06
5966;BME280;3009;43.224;27.976;2022-10-28T01:34:28;101760.91;;;11.44;88.50
5966;BME280;3009;43.224;27.976;2022-10-28T01:37:01;101758.72;;;11.51;87.47
5966;BME280;3009;43.224;27.976;2022-10-28T01:39:40;101759.69;;;11.66;86.30
5966;BME280;3009;43.224;27.976;2022-10-28T01:42:18;101754.25;;;11.76;84.75
5966;BME280;3009;43.224;27.976;2022-10-28T01:44:59;101760.91;;;11.79;84.50
5966;BME280;3009;43.224;27.976;2022-10-28T01:47:34;101762.25;;;11.81;83.88
5966;BME280;3009;43.224;27.976;2022-10-28T01:50:07;101758.22;;;11.79;83.48
5966;BME280;3009;43.224;27.976;2022-10-28T01:52:37;101758.75;;;11.81;83.43
5966;BME280;3009;43.224;27.976;2022-10-28T01:55:10;101755.22;;;11.85;82.83
5966;BME280;3009;43.224;27.976;2022-10-28T01:57:41;101758.19;;;11.84;82.47
5966;BME280;3009;43.224;27.976;2022-10-28T02:00:11;101751.44;;;11.86;82.12
5966;BME280;3009;43.224;27.976;2022-10-28T02:02:40;101755.75;;;11.87;81.44
5966;BME280;3009;43.224;27.976;2022-10-28T02:05:39;101754.09;;;11.92;81.11
5966;BME280;3009;43.224;27.976;2022-10-28T02:08:40;101754.06;;;11.97;80.11
5966;BME280;3009;43.224;27.976;2022-10-28T02:11:32;101756.25;;;11.89;79.76
5966;BME280;3009;43.224;27.976;2022-10-28T02:14:09;101749.56;;;11.87;79.80
5966;BME280;3009;43.224;27.976;2022-10-28T02:16:47;101748.47;;;11.93;78.83
5966;BME280;3009;43.224;27.976;2022-10-28T02:19:27;101746.59;;;11.88;78.50
5966;BME280;3009;43.224;27.976;2022-10-28T02:22:07;101753.56;;;11.89;77.27
5966;BME280;3009;43.224;27.976;2022-10-28T02:24:45;101749.50;;;11.97;75.97
5966;BME280;3009;43.224;27.976;2022-10-28T02:27:19;101756.94;;;12.05;75.13
5966;BME280;3009;43.224;27.976;2022-10-28T02:29:52;101761.25;;;12.07;75.08
5966;BME280;3009;43.224;27.976;2022-10-28T02:32:26;101755.16;;;11.96;75.84
5966;BME280;3009;43.224;27.976;2022-10-28T02:35:00;101762.13;;;11.97;75.34
5966;BME280;3009;43.224;27.976;2022-10-28T02:37:31;101760.72;;;12.04;74.26
5966;BME280;3009;43.224;27.976;2022-10-28T02:40:03;101756.16;;;12.05;74.11
5966;BME280;3009;43.224;27.976;2022-10-28T02:42:35;101755.81;;;12.12;73.63
5966;BME280;3009;43.224;27.976;2022-10-28T02:45:08;101757.66;;;12.16;73.45
5966;BME280;3009;43.224;27.976;2022-10-28T02:47:41;101750.69;;;12.15;72.86
5966;BME280;3009;43.224;27.976;2022-10-28T02:50:16;101753.31;;;12.20;72.72
5966;BME280;3009;43.224;27.976;2022-10-28T02:52:48;101758.13;;;12.23;72.68
5966;BME280;3009;43.224;27.976;2022-10-28T02:55:19;101761.31;;;12.26;72.63
5966;BME280;3009;43.224;27.976;2022-10-28T02:57:49;101757.81;;;12.25;72.74
5966;BME280;3009;43.224;27.976;2022-10-28T03:00:20;101766.53;;;12.17;72.88
5966;BME280;3009;43.224;27.976;2022-10-28T03:02:50;101764.63;;;12.17;72.96
5966;BME280;3009;43.224;27.976;2022-10-28T03:05:20;101758.19;;;12.18;72.57
5966;BME280;3009;43.224;27.976;2022-10-28T03:07:48;101760.59;;;12.20;72.81
5966;BME280;3009;43.224;27.976;2022-10-28T03:10:17;101756.50;;;12.22;72.30
5966;BME280;3009;43.224;27.976;2022-10-28T03:12:45;101760.31;;;12.21;71.90
5966;BME280;3009;43.224;27.976;2022-10-28T03:15:14;101767.03;;;12.19;71.73
5966;BME280;3009;43.224;27.976;2022-10-28T03:17:42;101758.13;;;12.23;71.47
5966;BME280;3009;43.224;27.976;2022-10-28T03:20:10;101764.53;;;12.28;71.23
5966;BME280;3009;43.224;27.976;2022-10-28T03:22:41;101763.97;;;12.31;70.56
5966;BME280;3009;43.224;27.976;2022-10-28T03:25:10;101761.28;;;12.31;70.43
5966;BME280;3009;43.224;27.976;2022-10-28T03:27:38;101762.81;;;12.37;69.72
5966;BME280;3009;43.224;27.976;2022-10-28T03:30:08;101762.81;;;12.37;69.98
5966;BME280;3009;43.224;27.976;2022-10-28T03:32:36;101767.63;;;12.40;69.51
5966;BME280;3009;43.224;27.976;2022-10-28T03:35:05;101769.53;;;12.39;69.58
5966;BME280;3009;43.224;27.976;2022-10-28T03:37:34;101770.31;;;12.40;69.38
5966;BME280;3009;43.224;27.976;2022-10-28T03:40:04;101768.66;;;12.44;69.42
5966;BME280;3009;43.224;27.976;2022-10-28T03:42:33;101771.06;;;12.46;69.38
5966;BME280;3009;43.224;27.976;2022-10-28T03:45:07;101767.50;;;12.50;68.94
5966;BME280;3009;43.224;27.976;2022-10-28T03:47:36;101766.94;;;12.53;68.67
5966;BME280;3009;43.224;27.976;2022-10-28T03:50:04;101766.41;;;12.51;68.95
5966;BME280;3009;43.224;27.976;2022-10-28T03:52:33;101767.50;;;12.50;69.12
5966;BME280;3009;43.224;27.976;2022-10-28T03:55:03;101768.03;;;12.52;68.95
5966;BME280;3009;43.224;27.976;2022-10-28T03:57:32;101772.81;;;12.55;68.83
5966;BME280;3009;43.224;27.976;2022-10-28T04:00:00;101769.81;;;12.62;68.53
5966;BME280;3009;43.224;27.976;2022-10-28T04:02:28;101772.50;;;12.62;68.53
5966;BME280;3009;43.224;27.976;2022-10-28T04:04:56;101768.97;;;12.62;68.74
5966;BME280;3009;43.224;27.976;2022-10-28T04:07:24;101767.72;;;12.54;69.22
5966;BME280;3009;43.224;27.976;2022-10-28T04:09:52;101777.69;;;12.53;69.26
5966;BME280;3009;43.224;27.976;2022-10-28T04:12:22;101774.94;;;12.58;69.20
5966;BME280;3009;43.224;27.976;2022-10-28T04:14:51;101774.91;;;12.64;68.93
5966;BME280;3009;43.224;27.976;2022-10-28T04:17:19;101773.78;;;12.65;69.22
5966;BME280;3009;43.224;27.976;2022-10-28T04:19:47;101778.88;;;12.66;68.75
5966;BME280;3009;43.224;27.976;2022-10-28T04:22:15;101780.78;;;12.66;68.83
5966;BME280;3009;43.224;27.976;2022-10-28T04:24:43;101773.00;;;12.64;68.97
5966;BME280;3009;43.224;27.976;2022-10-28T04:27:11;101779.16;;;12.65;68.70
5966;BME280;3009;43.224;27.976;2022-10-28T04:29:41;101781.06;;;12.64;68.64
5966;BME280;3009;43.224;27.976;2022-10-28T04:32:09;101786.78;;;12.57;69.02
5966;BME280;3009;43.224;27.976;2022-10-28T04:34:37;101784.94;;;12.53;69.49
5966;BME280;3009;43.224;27.976;2022-10-28T04:37:05;101791.03;;;12.39;71.26
5966;BME280;3009;43.224;27.976;2022-10-28T04:39:33;101807.03;;;11.91;78.57
5966;BME280;3009;43.224;27.976;2022-10-28T04:42:01;101803.63;;;11.80;81.36
5966;BME280;3009;43.224;27.976;2022-10-28T04:44:29;101807.59;;;11.93;80.23
5966;BME280;3009;43.224;27.976;2022-10-28T04:46:59;101817.50;;;11.98;79.77
5966;BME280;3009;43.224;27.976;2022-10-28T04:49:27;101807.50;;;12.03;80.61
5966;BME280;3009;43.224;27.976;2022-10-28T04:51:55;101811.06;;;11.94;82.31
5966;BME280;3009;43.224;27.976;2022-10-28T04:54:23;101818.84;;;11.95;84.72
5966;BME280;3009;43.224;27.976;2022-10-28T04:56:53;101811.63;;;11.96;86.01
5966;BME280;3009;43.224;27.976;2022-10-28T04:59:21;101812.19;;;11.93;88.46
5966;BME280;3009;43.224;27.976;2022-10-28T05:01:49;101816.84;;;12.11;89.89
5966;BME280;3009;43.224;27.976;2022-10-28T05:04:19;101821.53;;;12.00;90.83
5966;BME280;3009;43.224;27.976;2022-10-28T05:06:47;101822.03;;;12.02;91.30
5966;BME280;3009;43.224;27.976;2022-10-28T05:09:15;101817.44;;;12.03;90.54
5966;BME280;3009;43.224;27.976;2022-10-28T05:11:43;101824.38;;;12.09;90.92
5966;BME280;3009;43.224;27.976;2022-10-28T05:14:12;101821.41;;;12.11;91.45
5966;BME280;3009;43.224;27.976;2022-10-28T05:16:40;101825.13;;;12.20;92.69
5966;BME280;3009;43.224;27.976;2022-10-28T05:19:08;101830.22;;;12.21;93.69
5966;BME280;3009;43.224;27.976;2022-10-28T05:21:38;101836.94;;;12.19;87.53
5966;BME280;3009;43.224;27.976;2022-10-28T05:24:06;101838.69;;;12.34;80.97
5966;BME280;3009;43.224;27.976;2022-10-28T05:26:34;101844.78;;;12.45;76.32
5966;BME280;3009;43.224;27.976;2022-10-28T05:29:02;101840.75;;;12.42;75.12
5966;BME280;3009;43.224;27.976;2022-10-28T05:31:30;101847.28;;;12.36;75.42
5966;BME280;3009;43.224;27.976;2022-10-28T05:33:59;101842.94;;;12.40;75.93
5966;BME280;3009;43.224;27.976;2022-10-28T05:36:27;101851.47;;;12.47;75.74
5966;BME280;3009;43.224;27.976;2022-10-28T05:38:56;101848.53;;;12.44;76.98
5966;BME280;3009;43.224;27.976;2022-10-28T05:41:25;101853.03;;;12.53;77.23
5966;BME280;3009;43.224;27.976;2022-10-28T05:43:53;101851.31;;;12.63;77.08
5966;BME280;3009;43.224;27.976;2022-10-28T05:46:21;101857.22;;;12.65;76.84
5966;BME280;3009;43.224;27.976;2022-10-28T05:48:49;101859.03;;;12.69;76.33
5966;BME280;3009;43.224;27.976;2022-10-28T05:51:17;101857.59;;;12.77;76.40
5966;BME280;3009;43.224;27.976;2022-10-28T05:53:45;101855.56;;;12.93;76.85
5966;BME280;3009;43.224;27.976;2022-10-28T05:56:15;101858.72;;;13.00;77.04
5966;BME280;3009;43.224;27.976;2022-10-28T05:58:43;101853.50;;;13.09;76.16
5966;BME280;3009;43.224;27.976;2022-10-28T06:01:11;101858.22;;;13.17;76.36
5966;BME280;3009;43.224;27.976;2022-10-28T06:03:39;101859.25;;;13.21;75.84
5966;BME280;3009;43.224;27.976;2022-10-28T06:06:08;101855.16;;;13.24;75.58
5966;BME280;3009;43.224;27.976;2022-10-28T06:08:36;101856.56;;;13.21;75.08
5966;BME280;3009;43.224;27.976;2022-10-28T06:11:04;101859.97;;;13.27;75.46
5966;BME280;3009;43.224;27.976;2022-10-28T06:13:34;101860.69;;;13.38;74.79
5966;BME280;3009;43.224;27.976;2022-10-28T06:16:03;101856.69;;;13.35;76.92
5966;BME280;3009;43.224;27.976;2022-10-28T06:18:31;101861.94;;;13.45;78.13
5966;BME280;3009;43.224;27.976;2022-10-28T06:20:59;101852.38;;;13.53;78.67
5966;BME280;3009;43.224;27.976;2022-10-28T06:23:27;101854.66;;;13.65;79.19
5966;BME280;3009;43.224;27.976;2022-10-28T06:25:56;101856.09;;;13.76;76.33
5966;BME280;3009;43.224;27.976;2022-10-28T06:28:30;101861.53;;;13.90;75.11
5966;BME280;3009;43.224;27.976;2022-10-28T06:31:02;101857.91;;;14.14;70.85
5966;BME280;3009;43.224;27.976;2022-10-28T06:33:31;101850.47;;;14.39;69.37
5966;BME280;3009;43.224;27.976;2022-10-28T06:36:00;101862.09;;;14.53;68.65
5966;BME280;3009;43.224;27.976;2022-10-28T06:38:28;101858.19;;;14.59;69.61
5966;BME280;3009;43.224;27.976;2022-10-28T06:40:57;101855.34;;;14.69;69.72
5966;BME280;3009;43.224;27.976;2022-10-28T06:43:26;101864.94;;;14.76;74.63
5966;BME280;3009;43.224;27.976;2022-10-28T06:45:54;101858.84;;;14.70;76.08
5966;BME280;3009;43.224;27.976;2022-10-28T06:48:24;101868.72;;;14.75;76.14
5966;BME280;3009;43.224;27.976;2022-10-28T06:50:53;101872.56;;;14.74;76.69
5966;BME280;3009;43.224;27.976;2022-10-28T06:53:23;101872.31;;;14.70;77.23
5966;BME280;3009;43.224;27.976;2022-10-28T06:55:52;101869.75;;;14.79;75.75
5966;BME280;3009;43.224;27.976;2022-10-28T06:58:20;101874.53;;;14.82;77.93
5966;BME280;3009;43.224;27.976;2022-10-28T07:00:49;101873.94;;;14.85;77.65
5966;BME280;3009;43.224;27.976;2022-10-28T07:03:17;101871.84;;;14.82;76.99
5966;BME280;3009;43.224;27.976;2022-10-28T07:05:48;101876.34;;;14.86;77.55
5966;BME280;3009;43.224;27.976;2022-10-28T07:08:17;101880.63;;;15.01;75.30
5966;BME280;3009;43.224;27.976;2022-10-28T07:10:52;101870.94;;;15.14;75.58
5966;BME280;3009;43.224;27.976;2022-10-28T07:13:22;101867.31;;;15.19;77.10
5966;BME280;3009;43.224;27.976;2022-10-28T07:15:50;101876.91;;;15.25;77.56
5966;BME280;3009;43.224;27.976;2022-10-28T07:18:19;101879.50;;;15.30;77.21
5966;BME280;3009;43.224;27.976;2022-10-28T07:20:49;101871.31;;;15.35;77.44
5966;BME280;3009;43.224;27.976;2022-10-28T07:23:18;101874.50;;;15.10;79.25
5966;BME280;3009;43.224;27.976;2022-10-28T07:25:51;101879.72;;;15.20;80.88
5966;BME280;3009;43.224;27.976;2022-10-28T07:28:25;101873.66;;;15.51;79.61
5966;BME280;3009;43.224;27.976;2022-10-28T07:30:54;101871.22;;;15.63;79.66
5966;BME280;3009;43.224;27.976;2022-10-28T07:33:22;101870.91;;;15.65;79.61
5966;BME280;3009;43.224;27.976;2022-10-28T07:35:51;101874.41;;;15.65;79.18
5966;BME280;3009;43.224;27.976;2022-10-28T07:38:20;101869.81;;;15.66;78.77
5966;BME280;3009;43.224;27.976;2022-10-28T07:40:48;101873.78;;;15.68;79.33
5966;BME280;3009;43.224;27.976;2022-10-28T07:43:16;101871.41;;;15.81;78.89
5966;BME280;3009;43.224;27.976;2022-10-28T07:45:45;101873.72;;;15.96;78.99
5966;BME280;3009;43.224;27.976;2022-10-28T07:48:13;101877.78;;;16.07;77.70
5966;BME280;3009;43.224;27.976;2022-10-28T07:50:42;101880.81;;;15.69;78.70
5966;BME280;3009;43.224;27.976;2022-10-28T07:53:12;101882.34;;;15.62;79.24
5966;BME280;3009;43.224;27.976;2022-10-28T07:55:40;101881.81;;;15.73;78.91
5966;BME280;3009;43.224;27.976;2022-10-28T07:58:08;101871.75;;;15.88;78.62
5966;BME280;3009;43.224;27.976;2022-10-28T08:00:36;101884.25;;;15.61;79.15
5966;BME280;3009;43.224;27.976;2022-10-28T08:03:04;101881.59;;;15.70;79.41
5966;BME280;3009;43.224;27.976;2022-10-28T08:05:32;101885.41;;;15.83;79.06
5966;BME280;3009;43.224;27.976;2022-10-28T08:08:00;101880.31;;;15.67;79.45
5966;BME280;3009;43.224;27.976;2022-10-28T08:10:30;101880.38;;;15.76;79.05
5966;BME280;3009;43.224;27.976;2022-10-28T08:12:58;101881.72;;;16.01;78.76
5966;BME280;3009;43.224;27.976;2022-10-28T08:15:27;101884.72;;;16.00;77.61
5966;BME280;3009;43.224;27.976;2022-10-28T08:17:55;101884.78;;;15.86;78.64
5966;BME280;3009;43.224;27.976;2022-10-28T08:20:23;101882.19;;;16.03;78.22
5966;BME280;3009;43.224;27.976;2022-10-28T08:22:52;101879.75;;;16.16;77.19
5966;BME280;3009;43.224;27.976;2022-10-28T08:25:20;101891.34;;;16.16;77.45
5966;BME280;3009;43.224;27.976;2022-10-28T08:27:50;101883.72;;;16.18;77.50
5966;BME280;3009;43.224;27.976;2022-10-28T08:30:18;101887.13;;;16.01;77.26
5966;BME280;3009;43.224;27.976;2022-10-28T08:32:46;101890.91;;;16.23;76.74
5966;BME280;3009;43.224;27.976;2022-10-28T08:35:14;101886.84;;;16.34;76.09
5966;BME280;3009;43.224;27.976;2022-10-28T08:37:49;101891.28;;;16.30;76.18
5966;BME280;3009;43.224;27.976;2022-10-28T08:40:22;101893.97;;;16.30;75.46
5966;BME280;3009;43.224;27.976;2022-10-28T08:42:59;101892.44;;;16.38;75.49
5966;BME280;3009;43.224;27.976;2022-10-28T08:45:36;101896.91;;;16.42;74.04
5966;BME280;3009;43.224;27.976;2022-10-28T08:48:17;101888.91;;;16.60;74.12
5966;BME280;3009;43.224;27.976;2022-10-28T08:50:49;101896.53;;;16.58;73.40
5966;BME280;3009;43.224;27.976;2022-10-28T08:53:22;101893.84;;;16.58;73.71
5966;BME280;3009;43.224;27.976;2022-10-28T08:56:04;101899.50;;;16.47;74.31
5966;BME280;3009;43.224;27.976;2022-10-28T08:58:37;101904.31;;;16.51;73.69
5966;BME280;3009;43.224;27.976;2022-10-28T09:01:08;101895.06;;;16.52;73.18
5966;BME280;3009;43.224;27.976;2022-10-28T09:03:43;101897.72;;;16.43;73.50
5966;BME280;3009;43.224;27.976;2022-10-28T09:06:12;101891.88;;;16.50;72.74
5966;BME280;3009;43.224;27.976;2022-10-28T09:08:42;101898.91;;;16.28;72.87
5966;BME280;3009;43.224;27.976;2022-10-28T09:11:32;101892.28;;;16.11;72.75
5966;BME280;3009;43.224;27.976;2022-10-28T09:14:22;101893.00;;;16.26;72.52
5966;BME280;3009;43.224;27.976;2022-10-28T09:17:00;101892.59;;;16.10;70.43
5966;BME280;3009;43.224;27.976;2022-10-28T09:19:39;101884.53;;;16.19;71.59
5966;BME280;3009;43.224;27.976;2022-10-28T09:22:21;101891.34;;;16.16;70.67
5966;BME280;3009;43.224;27.976;2022-10-28T09:24:52;101883.00;;;16.26;70.45
5966;BME280;3009;43.224;27.976;2022-10-28T09:27:44;101878.91;;;16.38;70.00
5966;BME280;3009;43.224;27.976;2022-10-28T09:30:30;101878.47;;;16.44;70.69
5966;BME280;3009;43.224;27.976;2022-10-28T09:33:18;101873.31;;;16.34;71.63
5966;BME280;3009;43.224;27.976;2022-10-28T09:35:50;101873.56;;;16.24;73.33
5966;BME280;3009;43.224;27.976;2022-10-28T09:38:25;101864.97;;;16.22;74.03
5966;BME280;3009;43.224;27.976;2022-10-28T09:40:58;101863.78;;;16.37;73.92
5966;BME280;3009;43.224;27.976;2022-10-28T09:43:31;101862.84;;;16.41;74.16
5966;BME280;3009;43.224;27.976;2022-10-28T09:46:04;101857.16;;;16.52;74.64
5966;BME280;3009;43.224;27.976;2022-10-28T09:48:36;101858.22;;;16.42;75.11
5966;BME280;3009;43.224;27.976;2022-10-28T09:51:26;101856.59;;;16.32;73.60
5966;BME280;3009;43.224;27.976;2022-10-28T09:53:57;101861.75;;;16.20;75.05
5966;BME280;3009;43.224;27.976;2022-10-28T09:56:27;101854.63;;;16.24;75.86
5966;BME280;3009;43.224;27.976;2022-10-28T09:58:57;101854.78;;;16.19;76.65
5966;BME280;3009;43.224;27.976;2022-10-28T10:01:31;101847.84;;;16.35;75.32
5966;BME280;3009;43.224;27.976;2022-10-28T10:04:00;101855.06;;;16.48;74.62
5966;BME280;3009;43.224;27.976;2022-10-28T10:06:31;101852.53;;;16.21;76.58
5966;BME280;3009;43.224;27.976;2022-10-28T10:09:02;101847.06;;;16.12;76.63
5966;BME280;3009;43.224;27.976;2022-10-28T10:11:34;101848.81;;;16.39;77.05
5966;BME280;3009;43.224;27.976;2022-10-28T10:14:08;101847.09;;;16.43;76.70
5966;BME280;3009;43.224;27.976;2022-10-28T10:16:41;101839.31;;;16.19;77.61
5966;BME280;3009;43.224;27.976;2022-10-28T10:19:10;101831.66;;;16.12;78.16
5966;BME280;3009;43.224;27.976;2022-10-28T10:21:43;101844.44;;;16.21;78.88
5966;BME280;3009;43.224;27.976;2022-10-28T10:24:22;101835.53;;;16.20;78.74
5966;BME280;3009;43.224;27.976;2022-10-28T10:26:52;101833.91;;;16.19;79.49
5966;BME280;3009;43.224;27.976;2022-10-28T10:29:21;101829.03;;;16.30;79.11
5966;BME280;3009;43.224;27.976;2022-10-28T10:32:04;101831.53;;;16.18;78.79
5966;BME280;3009;43.224;27.976;2022-10-28T10:34:34;101831.09;;;16.02;78.75
5966;BME280;3009;43.224;27.976;2022-10-28T10:37:03;101822.66;;;16.03;78.47
5966;BME280;3009;43.224;27.976;2022-10-28T10:39:34;101824.06;;;16.23;78.35
5966;BME280;3009;43.224;27.976;2022-10-28T10:42:14;101816.28;;;16.22;78.18
5966;BME280;3009;43.224;27.976;2022-10-28T10:44:42;101821.84;;;16.25;77.68
5966;BME280;3009;43.224;27.976;2022-10-28T10:47:21;101816.06;;;16.18;77.83
5966;BME280;3009;43.224;27.976;2022-10-28T10:49:49;101812.41;;;16.14;77.70
5966;BME280;3009;43.224;27.976;2022-10-28T10:52:21;101818.47;;;16.20;78.14
5966;BME280;3009;43.224;27.976;2022-10-28T10:55:01;101811.84;;;16.03;77.85
5966;BME280;3009;43.224;27.976;2022-10-28T10:57:31;101816.09;;;15.95;77.04
5966;BME280;3009;43.224;27.976;2022-10-28T11:00:00;101815.16;;;15.91;77.67
5966;BME280;3009;43.224;27.976;2022-10-28T11:02:31;101811.81;;;15.94;78.78
5966;BME280;3009;43.224;27.976;2022-10-28T11:05:03;101817.16;;;16.08;78.42
5966;BME280;3009;43.224;27.976;2022-10-28T11:07:33;101820.59;;;16.00;79.10
5966;BME280;3009;43.224;27.976;2022-10-28T11:10:04;101807.94;;;16.18;78.31
5966;BME280;3009;43.224;27.976;2022-10-28T11:12:34;101813.69;;;16.17;77.72
5966;BME280;3009;43.224;27.976;2022-10-28T11:15:05;101813.97;;;16.06;77.50
5966;BME280;3009;43.224;27.976;2022-10-28T11:17:55;101816.78;;;16.01;76.63
5966;BME280;3009;43.224;27.976;2022-10-28T11:20:25;101811.84;;;16.03;78.24
5966;BME280;3009;43.224;27.976;2022-10-28T11:23:08;101812.25;;;16.19;77.67
5966;BME280;3009;43.224;27.976;2022-10-28T11:25:42;101813.25;;;16.23;77.87
5966;BME280;3009;43.224;27.976;2022-10-28T11:28:34;101808.34;;;16.34;77.75
5966;BME280;3009;43.224;27.976;2022-10-28T11:31:29;101810.50;;;16.15;75.90
5966;BME280;3009;43.224;27.976;2022-10-28T11:34:12;101807.38;;;15.99;78.85
5966;BME280;3009;43.224;27.976;2022-10-28T11:36:52;101803.94;;;16.07;78.70
5966;BME280;3009;43.224;27.976;2022-10-28T11:39:26;101808.41;;;16.11;78.84
5966;BME280;3009;43.224;27.976;2022-10-28T11:42:06;101804.19;;;16.28;78.08
5966;BME280;3009;43.224;27.976;2022-10-28T11:44:44;101806.06;;;16.19;76.30
5966;BME280;3009;43.224;27.976;2022-10-28T11:50:22;101803.84;;;16.21;76.11
5966;BME280;3009;43.224;27.976;2022-10-28T11:53:20;101805.44;;;16.22;76.10
5966;BME280;3009;43.224;27.976;2022-10-28T11:55:55;101803.84;;;16.21;76.16
5966;BME280;3009;43.224;27.976;2022-10-28T11:58:32;101798.00;;;16.27;75.74
5966;BME280;3009;43.224;27.976;2022-10-28T12:01:26;101804.47;;;16.18;75.83
5966;BME280;3009;43.224;27.976;2022-10-28T12:04:14;101803.00;;;16.11;76.37
5966;BME280;3009;43.224;27.976;2022-10-28T12:07:16;101808.09;;;16.13;76.83
5966;BME280;3009;43.224;27.976;2022-10-28T12:10:00;101802.53;;;16.18;76.69
5966;BME280;3009;43.224;27.976;2022-10-28T12:12:36;101793.19;;;16.24;76.19
5966;BME280;3009;43.224;27.976;2022-10-28T12:15:20;101795.25;;;16.19;75.39
5966;BME280;3009;43.224;27.976;2022-10-28T12:17:59;101804.19;;;15.97;76.15
5966;BME280;3009;43.224;27.976;2022-10-28T12:20:34;101803.19;;;15.92;77.10
5966;BME280;3009;43.224;27.976;2022-10-28T12:23:11;101800.31;;;15.89;77.64
5966;BME280;3009;43.224;27.976;2022-10-28T12:25:43;101795.75;;;15.98;77.38
5966;BME280;3009;43.224;27.976;2022-10-28T12:28:15;101799.75;;;16.01;75.71
5966;BME280;3009;43.224;27.976;2022-10-28T12:30:47;101789.38;;;15.94;75.64
5966;BME280;3009;43.224;27.976;2022-10-28T12:33:19;101784.78;;;15.94;75.22
5966;BME280;3009;43.224;27.976;2022-10-28T12:35:54;101791.13;;;15.99;75.80
5966;BME280;3009;43.224;27.976;2022-10-28T12:38:29;101795.13;;;16.01;76.52
5966;BME280;3009;43.224;27.976;2022-10-28T12:41:04;101789.81;;;15.87;76.10
5966;BME280;3009;43.224;27.976;2022-10-28T12:43:38;101786.44;;;15.82;76.68
5966;BME280;3009;43.224;27.976;2022-10-28T12:46:15;101779.06;;;15.73;77.05
5966;BME280;3009;43.224;27.976;2022-10-28T12:48:49;101783.84;;;15.76;76.95
5966;BME280;3009;43.224;27.976;2022-10-28T12:51:25;101780.53;;;15.80;76.86
5966;BME280;3009;43.224;27.976;2022-10-28T12:54:00;101781.94;;;15.77;76.60
5966;BME280;3009;43.224;27.976;2022-10-28T12:56:32;101783.47;;;15.47;77.91
5966;BME280;3009;43.224;27.976;2022-10-28T12:59:05;101775.34;;;15.47;78.38
5966;BME280;3009;43.224;27.976;2022-10-28T13:01:38;101776.75;;;15.44;77.86
5966;BME280;3009;43.224;27.976;2022-10-28T13:04:10;101780.06;;;15.41;78.25
5966;BME280;3009;43.224;27.976;2022-10-28T13:07:02;101776.97;;;15.48;77.74
5966;BME280;3009;43.224;27.976;2022-10-28T13:09:49;101770.81;;;15.33;78.20
5966;BME280;3009;43.224;27.976;2022-10-28T13:12:43;101764.56;;;15.47;77.81
5966;BME280;3009;43.224;27.976;2022-10-28T13:15:23;101766.78;;;15.45;77.90
5966;BME280;3009;43.224;27.976;2022-10-28T13:18:11;101765.53;;;15.51;77.57
5966;BME280;3009;43.224;27.976;2022-10-28T13:20:45;101768.72;;;15.53;77.00
5966;BME280;3009;43.224;27.976;2022-10-28T13:23:27;101766.69;;;15.36;78.16
5966;BME280;3009;43.224;27.976;2022-10-28T13:26:06;101761.09;;;15.32;77.71
5966;BME280;3009;43.224;27.976;2022-10-28T13:28:45;101760.59;;;15.30;77.88
5966;BME280;3009;43.224;27.976;2022-10-28T13:31:15;101759.06;;;15.38;78.00
5966;BME280;3009;43.224;27.976;2022-10-28T13:33:51;101761.38;;;15.45;77.09
5966;BME280;3009;43.224;27.976;2022-10-28T13:36:25;101763.44;;;15.25;77.73